sensor_id;sensor_type;location;lat;lon;timestamp;P1;durP1;ratioP1;P2;durP2;ratioP2
21032;SDS011;10675;47.976;7.824;2023-01-09T00:01:02;0.90;;;0.60;;
21032;SDS011;10675;47.976;7.824;2023-01-09T00:03:34;1.20;;;0.50;;
21032;SDS011;10675;47.976;7.824;2023-01-09T00:06:00;0.43;;;0.43;;
21032;SDS011;10675;47.976;7.824;2023-01-09T00:08:25;0.33;;;0.33;;
21032;SDS011;10675;47.976;7.824;2023-01-09T00:10:51;0.40;;;0.40;;
21032;SDS011;10675;47.976;7.824;2023-01-09T00:13:16;1.87;;;0.40;;
21032;SDS011;10675;47.976;7.824;2023-01-09T00:15:42;0.40;;;0.40;;
21032;SDS011;10675;47.976;7.824;2023-01-09T00:18:07;0.43;;;0.43;;
21032;SDS011;10675;47.976;7.824;2023-01-09T00:20:34;0.60;;;0.60;;
21032;SDS011;10675;47.976;7.824;2023-01-09T00:23:00;0.30;;;0.30;;
21032;SDS011;10675;47.976;7.824;2023-01-09T00:25:25;0.53;;;0.53;;
21032;SDS011;10675;47.976;7.824;2023-01-09T00:27:51;0.40;;;0.40;;
21032;SDS011;10675;47.976;7.824;2023-01-09T00:30:16;0.40;;;0.40;;
21032;SDS011;10675;47.976;7.824;2023-01-09T00:32:42;0.30;;;0.30;;
21032;SDS011;10675;47.976;7.824;2023-01-09T00:35:08;0.40;;;0.30;;
21032;SDS011;10675;47.976;7.824;2023-01-09T00:37:38;0.60;;;0.60;;
21032;SDS011;10675;47.976;7.824;2023-01-09T00:40:04;0.30;;;0.30;;
21032;SDS011;10675;47.976;7.824;2023-01-09T00:42:30;0.60;;;0.60;;
21032;SDS011;10675;47.976;7.824;2023-01-09T00:44:59;0.30;;;0.30;;
21032;SDS011;10675;47.976;7.824;2023-01-09T00:47:30;0.30;;;0.30;;
21032;SDS011;10675;47.976;7.824;2023-01-09T00:49:59;0.60;;;0.60;;
21032;SDS011;10675;47.976;7.824;2023-01-09T00:52:30;0.93;;;0.50;;
21032;SDS011;10675;47.976;7.824;2023-01-09T00:54:58;0.67;;;0.60;;
21032;SDS011;10675;47.976;7.824;2023-01-09T00:57:24;1.07;;;0.37;;
21032;SDS011;10675;47.976;7.824;2023-01-09T00:59:50;0.80;;;0.40;;
21032;SDS011;10675;47.976;7.824;2023-01-09T01:02:16;0.50;;;0.50;;
21032;SDS011;10675;47.976;7.824;2023-01-09T01:04:42;0.57;;;0.50;;
21032;SDS011;10675;47.976;7.824;2023-01-09T01:07:25;0.40;;;0.40;;
21032;SDS011;10675;47.976;7.824;2023-01-09T01:10:22;0.40;;;0.40;;
21032;SDS011;10675;47.976;7.824;2023-01-09T01:12:49;0.50;;;0.50;;
21032;SDS011;10675;47.976;7.824;2023-01-09T01:15:15;1.00;;;0.57;;
21032;SDS011;10675;47.976;7.824;2023-01-09T01:17:42;0.80;;;0.47;;
21032;SDS011;10675;47.976;7.824;2023-01-09T01:20:09;0.40;;;0.30;;
21032;SDS011;10675;47.976;7.824;2023-01-09T01:22:37;0.30;;;0.30;;
21032;SDS011;10675;47.976;7.824;2023-01-09T01:25:03;0.40;;;0.40;;
21032;SDS011;10675;47.976;7.824;2023-01-09T01:27:29;0.30;;;0.30;;
21032;SDS011;10675;47.976;7.824;2023-01-09T01:29:54;0.40;;;0.40;;
21032;SDS011;10675;47.976;7.824;2023-01-09T01:32:20;0.33;;;0.33;;
21032;SDS011;10675;47.976;7.824;2023-01-09T01:34:46;0.50;;;0.50;;
21032;SDS011;10675;47.976;7.824;2023-01-09T01:37:12;0.43;;;0.43;;
21032;SDS011;10675;47.976;7.824;2023-01-09T01:39:37;0.30;;;0.30;;
21032;SDS011;10675;47.976;7.824;2023-01-09T01:42:03;0.30;;;0.30;;
21032;SDS011;10675;47.976;7.824;2023-01-09T01:47:19;0.30;;;0.30;;
21032;SDS011;10675;47.976;7.824;2023-01-09T01:49:49;0.30;;;0.30;;
21032;SDS011;10675;47.976;7.824;2023-01-09T01:52:16;0.40;;;0.40;;
21032;SDS011;10675;47.976;7.824;2023-01-09T01:54:43;0.33;;;0.33;;
21032;SDS011;10675;47.976;7.824;2023-01-09T01:57:10;1.20;;;0.30;;
21032;SDS011;10675;47.976;7.824;2023-01-09T01:59:37;0.30;;;0.30;;
21032;SDS011;10675;47.976;7.824;2023-01-09T02:02:06;0.40;;;0.40;;
21032;SDS011;10675;47.976;7.824;2023-01-09T02:04:33;0.33;;;0.33;;
21032;SDS011;10675;47.976;7.824;2023-01-09T02:07:01;0.73;;;0.40;;
21032;SDS011;10675;47.976;7.824;2023-01-09T02:09:31;0.83;;;0.40;;
21032;SDS011;10675;47.976;7.824;2023-01-09T02:11:56;1.23;;;0.50;;
21032;SDS011;10675;47.976;7.824;2023-01-09T02:14:27;0.33;;;0.33;;
21032;SDS011;10675;47.976;7.824;2023-01-09T02:28:12;0.30;;;0.30;;
21032;SDS011;10675;47.976;7.824;2023-01-09T02:30:58;0.40;;;0.40;;
21032;SDS011;10675;47.976;7.824;2023-01-09T02:33:43;0.53;;;0.50;;
21032;SDS011;10675;47.976;7.824;2023-01-09T02:36:46;0.40;;;0.40;;
21032;SDS011;10675;47.976;7.824;2023-01-09T02:39:36;0.30;;;0.30;;
21032;SDS011;10675;47.976;7.824;2023-01-09T02:42:21;0.30;;;0.30;;
21032;SDS011;10675;47.976;7.824;2023-01-09T02:44:48;1.57;;;0.50;;
21032;SDS011;10675;47.976;7.824;2023-01-09T02:49:40;0.67;;;0.40;;
21032;SDS011;10675;47.976;7.824;2023-01-09T02:52:25;1.00;;;0.30;;
21032;SDS011;10675;47.976;7.824;2023-01-09T03:06:11;0.30;;;0.30;;
21032;SDS011;10675;47.976;7.824;2023-01-09T03:08:53;2.43;;;0.30;;
21032;SDS011;10675;47.976;7.824;2023-01-09T03:11:21;0.40;;;0.40;;
21032;SDS011;10675;47.976;7.824;2023-01-09T03:13:52;0.40;;;0.40;;
21032;SDS011;10675;47.976;7.824;2023-01-09T03:16:20;0.30;;;0.30;;
21032;SDS011;10675;47.976;7.824;2023-01-09T03:18:50;0.50;;;0.50;;
21032;SDS011;10675;47.976;7.824;2023-01-09T03:21:19;0.30;;;0.30;;
21032;SDS011;10675;47.976;7.824;2023-01-09T03:23:50;0.73;;;0.30;;
21032;SDS011;10675;47.976;7.824;2023-01-09T03:26:20;0.30;;;0.30;;
21032;SDS011;10675;47.976;7.824;2023-01-09T03:28:46;0.40;;;0.40;;
21032;SDS011;10675;47.976;7.824;2023-01-09T03:31:12;0.20;;;0.20;;
21032;SDS011;10675;47.976;7.824;2023-01-09T03:36:08;0.37;;;0.37;;
21032;SDS011;10675;47.976;7.824;2023-01-09T03:38:35;0.30;;;0.30;;
21032;SDS011;10675;47.976;7.824;2023-01-09T03:41:01;0.30;;;0.30;;
21032;SDS011;10675;47.976;7.824;2023-01-09T03:43:27;0.20;;;0.20;;
21032;SDS011;10675;47.976;7.824;2023-01-09T03:45:53;0.20;;;0.20;;
21032;SDS011;10675;47.976;7.824;2023-01-09T03:48:19;0.27;;;0.27;;
21032;SDS011;10675;47.976;7.824;2023-01-09T03:50:46;0.30;;;0.30;;
21032;SDS011;10675;47.976;7.824;2023-01-09T03:53:13;0.20;;;0.20;;
21032;SDS011;10675;47.976;7.824;2023-01-09T03:55:39;0.20;;;0.20;;
21032;SDS011;10675;47.976;7.824;2023-01-09T03:58:07;0.10;;;0.10;;
21032;SDS011;10675;47.976;7.824;2023-01-09T04:00:33;0.30;;;0.30;;
21032;SDS011;10675;47.976;7.824;2023-01-09T04:02:58;0.43;;;0.43;;
21032;SDS011;10675;47.976;7.824;2023-01-09T04:05:24;0.20;;;0.20;;
21032;SDS011;10675;47.976;7.824;2023-01-09T04:07:49;0.97;;;0.30;;
21032;SDS011;10675;47.976;7.824;2023-01-09T04:10:15;0.27;;;0.27;;
21032;SDS011;10675;47.976;7.824;2023-01-09T04:12:41;1.30;;;0.37;;
21032;SDS011;10675;47.976;7.824;2023-01-09T04:15:06;0.20;;;0.20;;
21032;SDS011;10675;47.976;7.824;2023-01-09T04:17:32;1.30;;;0.40;;
21032;SDS011;10675;47.976;7.824;2023-01-09T04:19:58;0.30;;;0.30;;
21032;SDS011;10675;47.976;7.824;2023-01-09T04:22:23;0.20;;;0.20;;
21032;SDS011;10675;47.976;7.824;2023-01-09T04:24:49;0.20;;;0.20;;
21032;SDS011;10675;47.976;7.824;2023-01-09T04:27:15;0.20;;;0.20;;
21032;SDS011;10675;47.976;7.824;2023-01-09T04:29:40;0.73;;;0.30;;
21032;SDS011;10675;47.976;7.824;2023-01-09T04:32:06;0.20;;;0.20;;
21032;SDS011;10675;47.976;7.824;2023-01-09T04:34:31;1.17;;;0.40;;
21032;SDS011;10675;47.976;7.824;2023-01-09T04:36:57;0.33;;;0.30;;
21032;SDS011;10675;47.976;7.824;2023-01-09T04:39:22;0.20;;;0.20;;
21032;SDS011;10675;47.976;7.824;2023-01-09T04:41:48;0.20;;;0.20;;
21032;SDS011;10675;47.976;7.824;2023-01-09T04:44:21;0.57;;;0.57;;
21032;SDS011;10675;47.976;7.824;2023-01-09T04:46:50;0.30;;;0.30;;
21032;SDS011;10675;47.976;7.824;2023-01-09T04:49:16;2.47;;;0.50;;
21032;SDS011;10675;47.976;7.824;2023-01-09T04:51:41;0.20;;;0.20;;
21032;SDS011;10675;47.976;7.824;2023-01-09T04:54:07;0.50;;;0.30;;
21032;SDS011;10675;47.976;7.824;2023-01-09T04:56:33;0.33;;;0.33;;
21032;SDS011;10675;47.976;7.824;2023-01-09T04:58:59;0.47;;;0.47;;
21032;SDS011;10675;47.976;7.824;2023-01-09T05:01:24;0.33;;;0.30;;
21032;SDS011;10675;47.976;7.824;2023-01-09T05:03:50;0.20;;;0.20;;
21032;SDS011;10675;47.976;7.824;2023-01-09T05:06:15;5.70;;;0.60;;
21032;SDS011;10675;47.976;7.824;2023-01-09T05:08:41;0.20;;;0.20;;
21032;SDS011;10675;47.976;7.824;2023-01-09T05:11:06;0.30;;;0.30;;
21032;SDS011;10675;47.976;7.824;2023-01-09T05:13:32;0.30;;;0.30;;
21032;SDS011;10675;47.976;7.824;2023-01-09T05:15:58;0.50;;;0.50;;
21032;SDS011;10675;47.976;7.824;2023-01-09T05:18:24;0.40;;;0.40;;
21032;SDS011;10675;47.976;7.824;2023-01-09T05:20:49;0.57;;;0.40;;
21032;SDS011;10675;47.976;7.824;2023-01-09T05:23:15;0.50;;;0.50;;
21032;SDS011;10675;47.976;7.824;2023-01-09T05:25:40;0.27;;;0.27;;
21032;SDS011;10675;47.976;7.824;2023-01-09T05:28:06;0.30;;;0.30;;
21032;SDS011;10675;47.976;7.824;2023-01-09T05:30:32;0.30;;;0.30;;
21032;SDS011;10675;47.976;7.824;2023-01-09T05:32:58;1.70;;;0.30;;
21032;SDS011;10675;47.976;7.824;2023-01-09T05:35:23;1.80;;;0.40;;
21032;SDS011;10675;47.976;7.824;2023-01-09T05:37:49;1.80;;;0.40;;
21032;SDS011;10675;47.976;7.824;2023-01-09T05:40:14;0.50;;;0.40;;
21032;SDS011;10675;47.976;7.824;2023-01-09T05:42:41;0.70;;;0.57;;
21032;SDS011;10675;47.976;7.824;2023-01-09T05:45:07;0.60;;;0.23;;
21032;SDS011;10675;47.976;7.824;2023-01-09T05:47:33;1.60;;;0.43;;
21032;SDS011;10675;47.976;7.824;2023-01-09T05:49:59;0.33;;;0.33;;
21032;SDS011;10675;47.976;7.824;2023-01-09T05:52:24;0.50;;;0.40;;
21032;SDS011;10675;47.976;7.824;2023-01-09T05:54:50;2.13;;;0.53;;
21032;SDS011;10675;47.976;7.824;2023-01-09T05:57:15;1.03;;;0.47;;
21032;SDS011;10675;47.976;7.824;2023-01-09T05:59:41;0.40;;;0.40;;
21032;SDS011;10675;47.976;7.824;2023-01-09T06:02:07;0.90;;;0.60;;
21032;SDS011;10675;47.976;7.824;2023-01-09T06:04:33;0.83;;;0.60;;
21032;SDS011;10675;47.976;7.824;2023-01-09T06:07:00;4.70;;;0.53;;
21032;SDS011;10675;47.976;7.824;2023-01-09T06:09:26;1.77;;;0.57;;
21032;SDS011;10675;47.976;7.824;2023-01-09T06:11:51;0.40;;;0.40;;
21032;SDS011;10675;47.976;7.824;2023-01-09T06:14:18;2.63;;;0.70;;
21032;SDS011;10675;47.976;7.824;2023-01-09T06:16:44;2.87;;;0.40;;
21032;SDS011;10675;47.976;7.824;2023-01-09T06:19:10;3.50;;;0.77;;
21032;SDS011;10675;47.976;7.824;2023-01-09T06:21:35;1.67;;;1.00;;
21032;SDS011;10675;47.976;7.824;2023-01-09T06:24:01;0.53;;;0.53;;
21032;SDS011;10675;47.976;7.824;2023-01-09T06:26:26;2.67;;;0.50;;
21032;SDS011;10675;47.976;7.824;2023-01-09T06:28:52;2.57;;;0.50;;
21032;SDS011;10675;47.976;7.824;2023-01-09T06:31:21;1.03;;;0.60;;
21032;SDS011;10675;47.976;7.824;2023-01-09T06:33:47;1.33;;;0.60;;
21032;SDS011;10675;47.976;7.824;2023-01-09T06:36:13;0.57;;;0.50;;
21032;SDS011;10675;47.976;7.824;2023-01-09T06:38:39;0.97;;;0.60;;
21032;SDS011;10675;47.976;7.824;2023-01-09T06:41:05;0.47;;;0.47;;
21032;SDS011;10675;47.976;7.824;2023-01-09T06:43:30;2.37;;;0.87;;
21032;SDS011;10675;47.976;7.824;2023-01-09T06:45:56;2.53;;;0.67;;
21032;SDS011;10675;47.976;7.824;2023-01-09T06:48:21;1.77;;;0.80;;
21032;SDS011;10675;47.976;7.824;2023-01-09T06:50:49;3.27;;;0.60;;
21032;SDS011;10675;47.976;7.824;2023-01-09T06:53:15;0.30;;;0.30;;
21032;SDS011;10675;47.976;7.824;2023-01-09T06:55:41;1.90;;;0.60;;
21032;SDS011;10675;47.976;7.824;2023-01-09T06:58:07;0.30;;;0.30;;
21032;SDS011;10675;47.976;7.824;2023-01-09T07:00:32;0.83;;;0.47;;
21032;SDS011;10675;47.976;7.824;2023-01-09T07:02:58;0.73;;;0.50;;
21032;SDS011;10675;47.976;7.824;2023-01-09T07:05:24;4.23;;;0.90;;
21032;SDS011;10675;47.976;7.824;2023-01-09T07:07:49;3.27;;;0.80;;
21032;SDS011;10675;47.976;7.824;2023-01-09T07:10:15;2.37;;;0.63;;
21032;SDS011;10675;47.976;7.824;2023-01-09T07:12:40;2.00;;;0.87;;
21032;SDS011;10675;47.976;7.824;2023-01-09T07:15:06;0.53;;;0.53;;
21032;SDS011;10675;47.976;7.824;2023-01-09T07:17:32;2.33;;;0.70;;
21032;SDS011;10675;47.976;7.824;2023-01-09T07:19:58;0.60;;;0.60;;
21032;SDS011;10675;47.976;7.824;2023-01-09T07:22:24;1.77;;;0.60;;
21032;SDS011;10675;47.976;7.824;2023-01-09T07:24:50;3.07;;;0.93;;
21032;SDS011;10675;47.976;7.824;2023-01-09T07:27:15;4.13;;;0.60;;
21032;SDS011;10675;47.976;7.824;2023-01-09T07:29:40;2.07;;;0.33;;
21032;SDS011;10675;47.976;7.824;2023-01-09T07:32:06;5.70;;;0.80;;
21032;SDS011;10675;47.976;7.824;2023-01-09T07:34:32;4.33;;;0.60;;
21032;SDS011;10675;47.976;7.824;2023-01-09T07:36:57;1.90;;;0.80;;
21032;SDS011;10675;47.976;7.824;2023-01-09T07:39:23;1.50;;;0.60;;
21032;SDS011;10675;47.976;7.824;2023-01-09T07:41:48;3.70;;;0.70;;
21032;SDS011;10675;47.976;7.824;2023-01-09T07:44:14;1.40;;;0.70;;
21032;SDS011;10675;47.976;7.824;2023-01-09T07:46:39;2.20;;;0.97;;
21032;SDS011;10675;47.976;7.824;2023-01-09T07:49:05;2.93;;;0.60;;
21032;SDS011;10675;47.976;7.824;2023-01-09T07:51:31;6.00;;;0.60;;
21032;SDS011;10675;47.976;7.824;2023-01-09T07:53:57;2.60;;;0.83;;
21032;SDS011;10675;47.976;7.824;2023-01-09T07:56:22;4.53;;;0.90;;
21032;SDS011;10675;47.976;7.824;2023-01-09T07:58:48;4.80;;;1.00;;
21032;SDS011;10675;47.976;7.824;2023-01-09T08:01:14;2.50;;;0.90;;
21032;SDS011;10675;47.976;7.824;2023-01-09T08:03:39;1.70;;;0.87;;
21032;SDS011;10675;47.976;7.824;2023-01-09T08:06:05;2.33;;;1.20;;
21032;SDS011;10675;47.976;7.824;2023-01-09T08:08:30;3.13;;;1.20;;
21032;SDS011;10675;47.976;7.824;2023-01-09T08:10:56;2.10;;;0.80;;
21032;SDS011;10675;47.976;7.824;2023-01-09T08:13:21;3.77;;;0.63;;
21032;SDS011;10675;47.976;7.824;2023-01-09T08:15:47;4.30;;;0.80;;
21032;SDS011;10675;47.976;7.824;2023-01-09T08:18:12;4.90;;;1.10;;
21032;SDS011;10675;47.976;7.824;2023-01-09T08:20:38;3.97;;;0.97;;
21032;SDS011;10675;47.976;7.824;2023-01-09T08:23:03;3.13;;;0.60;;
21032;SDS011;10675;47.976;7.824;2023-01-09T08:25:29;3.00;;;0.90;;
21032;SDS011;10675;47.976;7.824;2023-01-09T08:27:54;7.03;;;1.10;;
21032;SDS011;10675;47.976;7.824;2023-01-09T08:30:20;3.10;;;0.53;;
21032;SDS011;10675;47.976;7.824;2023-01-09T08:32:49;0.93;;;0.57;;
21032;SDS011;10675;47.976;7.824;2023-01-09T08:35:16;1.10;;;0.70;;
21032;SDS011;10675;47.976;7.824;2023-01-09T08:37:43;2.43;;;0.83;;
21032;SDS011;10675;47.976;7.824;2023-01-09T08:40:10;0.70;;;0.47;;
21032;SDS011;10675;47.976;7.824;2023-01-09T08:42:36;2.60;;;0.87;;
21032;SDS011;10675;47.976;7.824;2023-01-09T08:45:20;3.20;;;0.60;;
21032;SDS011;10675;47.976;7.824;2023-01-09T08:48:04;3.90;;;0.80;;
21032;SDS011;10675;47.976;7.824;2023-01-09T08:50:31;1.60;;;0.97;;
21032;SDS011;10675;47.976;7.824;2023-01-09T08:52:57;1.43;;;0.73;;
21032;SDS011;10675;47.976;7.824;2023-01-09T08:55:22;2.93;;;0.60;;
21032;SDS011;10675;47.976;7.824;2023-01-09T08:57:49;5.20;;;0.97;;
21032;SDS011;10675;47.976;7.824;2023-01-09T09:00:16;0.63;;;0.53;;
21032;SDS011;10675;47.976;7.824;2023-01-09T09:02:42;2.63;;;0.60;;
21032;SDS011;10675;47.976;7.824;2023-01-09T09:05:08;1.07;;;0.67;;
21032;SDS011;10675;47.976;7.824;2023-01-09T09:07:34;4.77;;;0.60;;
21032;SDS011;10675;47.976;7.824;2023-01-09T09:10:00;4.70;;;0.63;;
21032;SDS011;10675;47.976;7.824;2023-01-09T09:12:26;3.63;;;0.63;;
21032;SDS011;10675;47.976;7.824;2023-01-09T09:14:51;5.50;;;0.90;;
21032;SDS011;10675;47.976;7.824;2023-01-09T09:17:35;1.77;;;0.93;;
21032;SDS011;10675;47.976;7.824;2023-01-09T09:20:01;3.73;;;1.00;;
21032;SDS011;10675;47.976;7.824;2023-01-09T09:22:26;5.17;;;0.73;;
21032;SDS011;10675;47.976;7.824;2023-01-09T09:24:52;0.80;;;0.60;;
21032;SDS011;10675;47.976;7.824;2023-01-09T09:27:17;1.53;;;0.77;;
21032;SDS011;10675;47.976;7.824;2023-01-09T09:29:43;3.00;;;0.70;;
21032;SDS011;10675;47.976;7.824;2023-01-09T09:32:09;2.70;;;0.53;;
21032;SDS011;10675;47.976;7.824;2023-01-09T09:34:35;1.13;;;0.60;;
21032;SDS011;10675;47.976;7.824;2023-01-09T09:37:00;0.50;;;0.50;;
21032;SDS011;10675;47.976;7.824;2023-01-09T09:39:26;0.97;;;0.80;;
21032;SDS011;10675;47.976;7.824;2023-01-09T09:50:34;2.97;;;0.90;;
21032;SDS011;10675;47.976;7.824;2023-01-09T09:52:50;2.17;;;0.83;;
21032;SDS011;10675;47.976;7.824;2023-01-09T09:55:39;3.00;;;1.20;;
21032;SDS011;10675;47.976;7.824;2023-01-09T09:58:14;2.77;;;0.70;;
21032;SDS011;10675;47.976;7.824;2023-01-09T10:00:45;2.90;;;1.10;;
21032;SDS011;10675;47.976;7.824;2023-01-09T10:03:18;0.93;;;0.60;;
21032;SDS011;10675;47.976;7.824;2023-01-09T10:05:59;1.20;;;0.80;;
21032;SDS011;10675;47.976;7.824;2023-01-09T10:11:11;3.93;;;1.03;;
21032;SDS011;10675;47.976;7.824;2023-01-09T10:13:42;3.40;;;1.00;;
21032;SDS011;10675;47.976;7.824;2023-01-09T10:16:40;6.80;;;1.57;;
21032;SDS011;10675;47.976;7.824;2023-01-09T10:25:21;1.07;;;0.90;;
21032;SDS011;10675;47.976;7.824;2023-01-09T10:28:26;2.63;;;0.80;;
21032;SDS011;10675;47.976;7.824;2023-01-09T10:31:01;1.50;;;0.70;;
21032;SDS011;10675;47.976;7.824;2023-01-09T10:33:51;2.63;;;0.90;;
21032;SDS011;10675;47.976;7.824;2023-01-09T10:36:28;2.43;;;0.70;;
21032;SDS011;10675;47.976;7.824;2023-01-09T10:39:03;1.80;;;0.67;;
21032;SDS011;10675;47.976;7.824;2023-01-09T10:41:45;3.87;;;0.90;;
21032;SDS011;10675;47.976;7.824;2023-01-09T10:44:36;3.53;;;0.73;;
21032;SDS011;10675;47.976;7.824;2023-01-09T10:47:32;3.40;;;0.63;;
21032;SDS011;10675;47.976;7.824;2023-01-09T10:49:58;2.57;;;0.60;;
21032;SDS011;10675;47.976;7.824;2023-01-09T10:52:36;3.00;;;1.07;;
21032;SDS011;10675;47.976;7.824;2023-01-09T10:57:44;2.47;;;0.80;;
21032;SDS011;10675;47.976;7.824;2023-01-09T11:00:20;3.77;;;0.90;;
21032;SDS011;10675;47.976;7.824;2023-01-09T11:02:47;0.97;;;0.67;;
21032;SDS011;10675;47.976;7.824;2023-01-09T11:05:18;2.00;;;0.70;;
21032;SDS011;10675;47.976;7.824;2023-01-09T11:07:55;0.87;;;0.57;;
21032;SDS011;10675;47.976;7.824;2023-01-09T11:10:21;2.03;;;0.70;;
21032;SDS011;10675;47.976;7.824;2023-01-09T11:12:47;0.40;;;0.40;;
21032;SDS011;10675;47.976;7.824;2023-01-09T11:17:43;0.40;;;0.40;;
21032;SDS011;10675;47.976;7.824;2023-01-09T11:20:16;0.93;;;0.40;;
21032;SDS011;10675;47.976;7.824;2023-01-09T11:22:51;0.47;;;0.47;;
21032;SDS011;10675;47.976;7.824;2023-01-09T11:25:25;0.73;;;0.50;;
21032;SDS011;10675;47.976;7.824;2023-01-09T11:30:27;1.53;;;0.47;;
21032;SDS011;10675;47.976;7.824;2023-01-09T11:33:00;2.33;;;0.50;;
21032;SDS011;10675;47.976;7.824;2023-01-09T11:35:38;0.20;;;0.20;;
21032;SDS011;10675;47.976;7.824;2023-01-09T11:38:14;0.33;;;0.33;;
21032;SDS011;10675;47.976;7.824;2023-01-09T11:40:51;0.73;;;0.40;;
21032;SDS011;10675;47.976;7.824;2023-01-09T11:43:34;0.33;;;0.33;;
21032;SDS011;10675;47.976;7.824;2023-01-09T11:46:04;0.23;;;0.23;;
21032;SDS011;10675;47.976;7.824;2023-01-09T11:51:05;0.30;;;0.30;;
21032;SDS011;10675;47.976;7.824;2023-01-09T11:56:42;0.87;;;0.57;;
21032;SDS011;10675;47.976;7.824;2023-01-09T11:59:19;1.90;;;0.70;;
21032;SDS011;10675;47.976;7.824;2023-01-09T12:02:04;0.33;;;0.33;;
21032;SDS011;10675;47.976;7.824;2023-01-09T12:21:34;0.73;;;0.60;;
21032;SDS011;10675;47.976;7.824;2023-01-09T12:27:02;1.03;;;0.73;;
21032;SDS011;10675;47.976;7.824;2023-01-09T12:32:37;0.50;;;0.50;;
21032;SDS011;10675;47.976;7.824;2023-01-09T12:41:27;3.60;;;0.90;;
21032;SDS011;10675;47.976;7.824;2023-01-09T12:47:17;1.10;;;0.60;;
21032;SDS011;10675;47.976;7.824;2023-01-09T12:52:24;1.80;;;0.50;;
21032;SDS011;10675;47.976;7.824;2023-01-09T12:54:57;3.03;;;1.00;;
21032;SDS011;10675;47.976;7.824;2023-01-09T12:57:29;1.63;;;0.80;;
21032;SDS011;10675;47.976;7.824;2023-01-09T13:00:03;2.43;;;0.70;;
21032;SDS011;10675;47.976;7.824;2023-01-09T13:05:35;0.60;;;0.43;;
21032;SDS011;10675;47.976;7.824;2023-01-09T13:08:06;2.50;;;0.50;;
21032;SDS011;10675;47.976;7.824;2023-01-09T13:10:56;2.47;;;0.83;;
21032;SDS011;10675;47.976;7.824;2023-01-09T13:13:29;2.23;;;1.20;;
21032;SDS011;10675;47.976;7.824;2023-01-09T13:16:15;3.53;;;0.90;;
21032;SDS011;10675;47.976;7.824;2023-01-09T13:18:56;1.40;;;0.90;;
21032;SDS011;10675;47.976;7.824;2023-01-09T13:21:27;1.20;;;0.77;;
21032;SDS011;10675;47.976;7.824;2023-01-09T13:24:13;2.83;;;0.80;;
21032;SDS011;10675;47.976;7.824;2023-01-09T13:26:49;1.80;;;0.40;;
21032;SDS011;10675;47.976;7.824;2023-01-09T13:29:20;2.10;;;0.77;;
21032;SDS011;10675;47.976;7.824;2023-01-09T13:34:52;3.47;;;0.90;;
21032;SDS011;10675;47.976;7.824;2023-01-09T13:37:23;2.20;;;0.70;;
21032;SDS011;10675;47.976;7.824;2023-01-09T13:40:00;1.70;;;0.60;;
21032;SDS011;10675;47.976;7.824;2023-01-09T13:42:27;2.03;;;0.53;;
21032;SDS011;10675;47.976;7.824;2023-01-09T13:45:08;1.00;;;0.57;;
21032;SDS011;10675;47.976;7.824;2023-01-09T13:47:40;1.87;;;0.77;;
21032;SDS011;10675;47.976;7.824;2023-01-09T13:52:40;2.67;;;0.80;;
21032;SDS011;10675;47.976;7.824;2023-01-09T14:08:00;0.60;;;0.60;;
21032;SDS011;10675;47.976;7.824;2023-01-09T14:13:15;0.50;;;0.50;;
21032;SDS011;10675;47.976;7.824;2023-01-09T14:15:44;2.00;;;0.97;;
21032;SDS011;10675;47.976;7.824;2023-01-09T14:20:59;2.27;;;0.70;;
21032;SDS011;10675;47.976;7.824;2023-01-09T14:23:32;1.30;;;0.60;;
21032;SDS011;10675;47.976;7.824;2023-01-09T14:26:01;8.23;;;3.23;;
21032;SDS011;10675;47.976;7.824;2023-01-09T14:28:28;6.90;;;2.80;;
21032;SDS011;10675;47.976;7.824;2023-01-09T14:38:26;8.87;;;3.77;;
21032;SDS011;10675;47.976;7.824;2023-01-09T14:41:03;3.17;;;1.20;;
21032;SDS011;10675;47.976;7.824;2023-01-09T14:43:48;3.47;;;1.67;;
21032;SDS011;10675;47.976;7.824;2023-01-09T14:46:38;5.50;;;3.03;;
21032;SDS011;10675;47.976;7.824;2023-01-09T14:51:40;4.33;;;1.87;;
21032;SDS011;10675;47.976;7.824;2023-01-09T14:54:23;3.10;;;1.50;;
21032;SDS011;10675;47.976;7.824;2023-01-09T14:56:53;3.80;;;1.23;;
21032;SDS011;10675;47.976;7.824;2023-01-09T14:59:19;2.47;;;1.30;;
21032;SDS011;10675;47.976;7.824;2023-01-09T15:01:45;1.53;;;0.90;;
21032;SDS011;10675;47.976;7.824;2023-01-09T15:04:29;0.77;;;0.50;;
21032;SDS011;10675;47.976;7.824;2023-01-09T15:06:59;1.00;;;0.50;;
21032;SDS011;10675;47.976;7.824;2023-01-09T15:09:26;0.93;;;0.40;;
21032;SDS011;10675;47.976;7.824;2023-01-09T15:11:53;0.47;;;0.47;;
21032;SDS011;10675;47.976;7.824;2023-01-09T15:14:28;1.97;;;0.73;;
21032;SDS011;10675;47.976;7.824;2023-01-09T15:16:55;2.37;;;1.43;;
21032;SDS011;10675;47.976;7.824;2023-01-09T15:19:21;3.90;;;2.30;;
21032;SDS011;10675;47.976;7.824;2023-01-09T15:22:04;0.70;;;0.70;;
21032;SDS011;10675;47.976;7.824;2023-01-09T15:24:32;2.90;;;1.27;;
21032;SDS011;10675;47.976;7.824;2023-01-09T15:27:16;1.63;;;0.80;;
21032;SDS011;10675;47.976;7.824;2023-01-09T15:29:48;1.40;;;0.60;;
21032;SDS011;10675;47.976;7.824;2023-01-09T15:32:19;1.60;;;0.80;;
21032;SDS011;10675;47.976;7.824;2023-01-09T15:34:48;1.40;;;1.20;;
21032;SDS011;10675;47.976;7.824;2023-01-09T15:37:24;5.90;;;2.10;;
21032;SDS011;10675;47.976;7.824;2023-01-09T15:39:56;2.43;;;1.53;;
21032;SDS011;10675;47.976;7.824;2023-01-09T15:42:29;1.90;;;1.53;;
21032;SDS011;10675;47.976;7.824;2023-01-09T15:45:20;3.07;;;2.27;;
21032;SDS011;10675;47.976;7.824;2023-01-09T15:48:13;2.57;;;1.73;;
21032;SDS011;10675;47.976;7.824;2023-01-09T15:50:46;1.97;;;1.60;;
21032;SDS011;10675;47.976;7.824;2023-01-09T15:53:15;4.37;;;1.40;;
21032;SDS011;10675;47.976;7.824;2023-01-09T15:56:00;2.40;;;1.30;;
21032;SDS011;10675;47.976;7.824;2023-01-09T15:58:32;1.33;;;1.00;;
21032;SDS011;10675;47.976;7.824;2023-01-09T16:01:23;1.07;;;0.57;;
21032;SDS011;10675;47.976;7.824;2023-01-09T16:03:45;1.70;;;0.70;;
21032;SDS011;10675;47.976;7.824;2023-01-09T16:06:22;1.53;;;0.77;;
21032;SDS011;10675;47.976;7.824;2023-01-09T16:08:51;2.57;;;0.97;;
21032;SDS011;10675;47.976;7.824;2023-01-09T16:11:27;0.70;;;0.67;;
21032;SDS011;10675;47.976;7.824;2023-01-09T16:14:42;2.30;;;1.00;;
21032;SDS011;10675;47.976;7.824;2023-01-09T16:16:45;0.57;;;0.53;;
21032;SDS011;10675;47.976;7.824;2023-01-09T16:21:56;1.30;;;0.80;;
21032;SDS011;10675;47.976;7.824;2023-01-09T16:24:27;2.00;;;0.73;;
21032;SDS011;10675;47.976;7.824;2023-01-09T16:29:47;1.70;;;0.50;;
21032;SDS011;10675;47.976;7.824;2023-01-09T16:32:20;1.50;;;0.60;;
21032;SDS011;10675;47.976;7.824;2023-01-09T16:34:55;2.43;;;0.53;;
21032;SDS011;10675;47.976;7.824;2023-01-09T16:37:23;0.50;;;0.50;;
21032;SDS011;10675;47.976;7.824;2023-01-09T16:40:13;1.47;;;0.60;;
21032;SDS011;10675;47.976;7.824;2023-01-09T16:42:39;0.33;;;0.33;;
21032;SDS011;10675;47.976;7.824;2023-01-09T16:45:24;1.70;;;0.27;;
21032;SDS011;10675;47.976;7.824;2023-01-09T16:47:51;1.30;;;0.40;;
21032;SDS011;10675;47.976;7.824;2023-01-09T16:50:17;0.57;;;0.50;;
21032;SDS011;10675;47.976;7.824;2023-01-09T16:52:43;2.20;;;0.40;;
21032;SDS011;10675;47.976;7.824;2023-01-09T16:55:08;0.50;;;0.50;;
21032;SDS011;10675;47.976;7.824;2023-01-09T16:57:34;0.50;;;0.50;;
21032;SDS011;10675;47.976;7.824;2023-01-09T17:00:00;1.23;;;0.63;;
21032;SDS011;10675;47.976;7.824;2023-01-09T17:02:26;3.10;;;0.60;;
21032;SDS011;10675;47.976;7.824;2023-01-09T17:04:52;0.57;;;0.57;;
21032;SDS011;10675;47.976;7.824;2023-01-09T17:07:21;0.77;;;0.60;;
21032;SDS011;10675;47.976;7.824;2023-01-09T17:09:49;1.60;;;0.50;;
21032;SDS011;10675;47.976;7.824;2023-01-09T17:12:16;0.70;;;0.70;;
21032;SDS011;10675;47.976;7.824;2023-01-09T17:14:43;1.10;;;0.83;;
21032;SDS011;10675;47.976;7.824;2023-01-09T17:17:13;0.90;;;0.40;;
21032;SDS011;10675;47.976;7.824;2023-01-09T17:19:39;1.07;;;0.80;;
21032;SDS011;10675;47.976;7.824;2023-01-09T17:22:05;3.70;;;1.00;;